Time;durP1;ratioP1;P1;durP2;ratioP2;P2;SDS_P1;SDS_P2;PMS_P1;PMS_P2;Temp;Humidity;BMP_temperature;BMP_pressure;BME280_temperature;BME280_humidity;BME280_pressure;Samples;Min_cycle;Max_cycle;Signal;HPM_P1;HPM_P2
2021/12/23 00:01:31;;;;;;;22.88;13.90;;;-0.90;99.90;;;;;;4991015;28;20068;-81
2021/12/23 00:03:58;;;;;;;24.83;14.23;;;-0.90;99.90;;;;;;5009777;28;20061;-82
2021/12/23 00:06:24;;;;;;;23.80;14.02;;;-0.90;99.90;;;;;;4992619;28;214652;-81
2021/12/23 00:08:50;;;;;;;23.55;13.73;;;-0.90;99.90;;;;;;5010833;28;20050;-81
2021/12/23 00:11:16;;;;;;;26.13;14.05;;;-0.90;99.90;;;;;;4992888;28;194180;-81
2021/12/23 00:13:51;;;;;;;22.88;13.52;;;-0.90;99.90;;;;;;5006558;28;20041;-82
2021/12/23 00:16:30;;;;;;;25.00;13.98;;;-0.90;99.90;;;;;;4982617;28;286772;-81
2021/12/23 00:19:03;;;;;;;23.08;13.55;;;-0.90;99.90;;;;;;5010356;28;20054;-82
2021/12/23 00:24:14;;;;;;;24.20;14.15;;;-0.80;99.90;;;;;;4992584;28;263852;-80
2021/12/23 00:26:40;;;;;;;22.85;13.40;;;-0.80;99.90;;;;;;5006123;28;20438;-81
2021/12/23 00:29:07;;;;;;;25.73;13.73;;;-0.80;99.90;;;;;;4992897;28;272148;-81
2021/12/23 00:31:33;;;;;;;24.23;13.70;;;-0.70;99.90;;;;;;5015528;28;20053;-83
2021/12/23 00:34:02;;;;;;;25.36;14.78;;;-0.70;99.90;;;;;;5000295;28;267785;-80
2021/12/23 00:36:28;;;;;;;22.73;13.48;;;-0.70;99.90;;;;;;5028160;28;20072;-80
2021/12/23 00:39:01;;;;;;;23.27;14.23;;;-0.70;99.90;;;;;;4990684;28;20050;-81
2021/12/23 00:41:30;;;;;;;23.73;14.48;;;-0.70;99.90;;;;;;4997128;28;20046;-82
2021/12/23 00:43:57;;;;;;;25.02;13.93;;;-0.70;99.90;;;;;;5007099;28;20537;-81
2021/12/23 00:46:24;;;;;;;26.55;14.80;;;-0.60;99.90;;;;;;4991217;28;29413;-81
2021/12/23 00:48:50;;;;;;;22.52;13.88;;;-0.60;99.90;;;;;;5007391;28;20045;-82
2021/12/23 00:51:16;;;;;;;22.60;14.15;;;-0.60;99.90;;;;;;5003484;28;303862;-82
2021/12/23 00:53:44;;;;;;;21.48;13.70;;;-0.60;99.90;;;;;;5012141;28;20056;-82
2021/12/23 00:56:12;;;;;;;26.42;14.23;;;-0.60;99.90;;;;;;4992347;28;146204;-81
2021/12/23 00:58:38;;;;;;;25.13;14.27;;;-0.60;99.90;;;;;;4999055;28;20045;-82
2021/12/23 01:01:05;;;;;;;25.10;14.23;;;-0.50;99.90;;;;;;5003401;28;318993;-82
2021/12/23 01:03:31;;;;;;;28.00;14.25;;;-0.50;99.90;;;;;;5007078;28;20054;-80
2021/12/23 01:05:58;;;;;;;26.67;14.55;;;-0.50;99.90;;;;;;4986196;28;286916;-82
2021/12/23 01:08:26;;;;;;;27.05;15.15;;;-0.50;99.90;;;;;;5020867;28;20046;-80
2021/12/23 01:10:58;;;;;;;21.33;13.60;;;-0.40;99.90;;;;;;4702362;28;9001114;-80
2021/12/23 01:13:27;;;;;;;23.67;13.80;;;-0.40;99.90;;;;;;5030101;28;20045;-82
2021/12/23 01:16:14;;;;;;;25.83;13.55;;;-0.40;99.90;;;;;;5010251;28;241637;-82
2021/12/23 01:18:53;;;;;;;23.23;13.52;;;-0.40;99.90;;;;;;5019678;28;20056;-81
2021/12/23 01:21:19;;;;;;;22.08;13.82;;;-0.40;99.90;;;;;;5009727;28;51971;-80
2021/12/23 01:23:56;;;;;;;22.35;13.23;;;-0.40;99.90;;;;;;5031234;28;20057;-83
2021/12/23 01:26:32;;;;;;;23.98;14.30;;;-0.40;99.90;;;;;;4967526;28;20046;-83
2021/12/23 01:28:58;;;;;;;23.65;13.38;;;-0.30;99.90;;;;;;5011630;28;20062;-82
2021/12/23 01:31:28;;;;;;;24.85;13.35;;;-0.30;99.90;;;;;;5002717;28;20033;-79
2021/12/23 01:33:54;;;;;;;22.30;14.38;;;-0.30;99.90;;;;;;5004283;28;20514;-80
2021/12/23 01:36:25;;;;;;;24.50;14.07;;;-0.30;99.90;;;;;;5012069;28;149649;-79
2021/12/23 01:38:52;;;;;;;21.95;13.70;;;-0.30;99.90;;;;;;5015446;28;20053;-80
2021/12/23 01:41:19;;;;;;;26.10;13.82;;;-0.30;99.90;;;;;;4996107;28;159087;-79
2021/12/23 01:43:45;;;;;;;23.88;13.23;;;-0.30;99.90;;;;;;5010128;28;20487;-80
2021/12/23 01:46:15;;;;;;;23.00;14.10;;;-0.30;99.90;;;;;;5006453;28;253729;-79
2021/12/23 01:48:42;;;;;;;23.65;14.25;;;-0.30;99.90;;;;;;5008183;28;20050;-80
2021/12/23 01:51:09;;;;;;;25.88;14.35;;;-0.30;99.90;;;;;;4993878;28;20041;-79
2021/12/23 01:53:35;;;;;;;23.88;14.35;;;-0.30;99.90;;;;;;4990589;28;20069;-81
2021/12/23 01:56:02;;;;;;;26.55;14.10;;;-0.30;99.90;;;;;;4992434;28;207437;-79
2021/12/23 01:58:28;;;;;;;26.40;14.75;;;-0.30;99.90;;;;;;5007657;28;20057;-79
2021/12/23 02:00:55;;;;;;;23.60;14.60;;;-0.30;99.90;;;;;;5003337;28;268062;-80
2021/12/23 02:03:21;;;;;;;23.63;15.30;;;-0.30;99.90;;;;;;5008902;28;20046;-80
2021/12/23 02:05:48;;;;;;;23.58;14.52;;;-0.30;99.90;;;;;;4981835;28;120904;-81
2021/12/23 02:08:17;;;;;;;26.75;15.43;;;-0.30;99.90;;;;;;5009441;28;20664;-81
2021/12/23 02:10:44;;;;;;;26.27;15.43;;;-0.30;99.90;;;;;;5000492;28;50126;-80
2021/12/23 02:13:14;;;;;;;25.00;14.80;;;-0.30;99.90;;;;;;4986295;28;20053;-80
2021/12/23 02:15:41;;;;;;;26.08;14.88;;;-0.30;99.90;;;;;;5001803;28;267122;-81
2021/12/23 02:18:10;;;;;;;26.05;15.75;;;-0.30;99.90;;;;;;5010214;28;20054;-82
2021/12/23 02:20:36;;;;;;;26.67;15.27;;;-0.30;99.90;;;;;;4881413;28;3008335;-80
2021/12/23 02:23:03;;;;;;;24.80;14.82;;;-0.30;99.90;;;;;;4988810;28;20054;-81
2021/12/23 02:25:39;;;;;;;25.30;15.73;;;-0.30;99.90;;;;;;4701877;28;9005874;-80
2021/12/23 02:28:08;;;;;;;28.40;15.77;;;-0.30;99.90;;;;;;5000704;28;20057;-79
2021/12/23 02:30:38;;;;;;;25.52;15.15;;;-0.30;99.90;;;;;;4999238;28;140815;-81
2021/12/23 02:33:07;;;;;;;26.05;15.75;;;-0.30;99.90;;;;;;5020288;28;20049;-80
2021/12/23 02:35:34;;;;;;;29.23;15.63;;;-0.30;99.90;;;;;;5003907;28;235789;-80
2021/12/23 02:38:01;;;;;;;26.70;15.30;;;-0.30;99.90;;;;;;5011190;28;20042;-80
2021/12/23 02:40:50;;;;;;;28.10;16.08;;;-0.30;99.90;;;;;;4974972;28;263222;-80
2021/12/23 02:43:25;;;;;;;26.70;15.43;;;-0.30;99.90;;;;;;5008497;28;20042;-80
2021/12/23 02:45:58;;;;;;;24.33;14.90;;;-0.30;99.90;;;;;;4975865;28;208638;-80
2021/12/23 02:48:34;;;;;;;27.38;15.55;;;-0.30;99.90;;;;;;5021423;28;20454;-79
2021/12/23 02:51:09;;;;;;;25.73;14.88;;;-0.30;99.90;;;;;;5014167;28;262282;-79
2021/12/23 02:53:39;;;;;;;26.42;14.63;;;-0.30;99.90;;;;;;5025399;28;20058;-80
2021/12/23 02:56:11;;;;;;;26.13;15.20;;;-0.20;99.90;;;;;;4986585;28;28740;-81
2021/12/23 02:58:38;;;;;;;26.88;14.57;;;-0.30;99.90;;;;;;5008553;28;20050;-80
2021/12/23 03:01:08;;;;;;;27.95;16.40;;;-0.30;99.90;;;;;;5007020;28;280983;-80
2021/12/23 03:03:34;;;;;;;26.25;15.80;;;-0.30;99.90;;;;;;5014603;28;20068;-79
2021/12/23 03:06:00;;;;;;;26.35;16.75;;;-0.30;99.90;;;;;;4988049;28;111194;-81
2021/12/23 03:08:28;;;;;;;29.33;17.83;;;-0.30;99.90;;;;;;5008195;28;20061;-79
2021/12/23 03:10:57;;;;;;;27.95;15.52;;;-0.30;99.90;;;;;;4978751;28;205862;-80
2021/12/23 03:13:26;;;;;;;27.77;15.98;;;-0.30;99.90;;;;;;4989501;28;20505;-80
2021/12/23 03:15:53;;;;;;;26.05;15.60;;;-0.30;99.90;;;;;;5003891;28;244187;-80
2021/12/23 03:18:19;;;;;;;26.30;15.52;;;-0.30;99.90;;;;;;5004411;28;20050;-80
2021/12/23 03:20:45;;;;;;;25.90;15.88;;;-0.30;99.90;;;;;;4982094;28;67102;-79
2021/12/23 03:23:12;;;;;;;27.73;15.88;;;-0.20;99.90;;;;;;5005659;28;20042;-80
2021/12/23 03:25:39;;;;;;;26.38;16.65;;;-0.20;99.90;;;;;;4974280;28;246845;-81
2021/12/23 03:28:05;;;;;;;25.30;16.08;;;-0.30;99.90;;;;;;5008483;28;20450;-79
2021/12/23 03:30:32;;;;;;;27.05;15.77;;;-0.30;99.90;;;;;;4649580;28;10003041;-80
2021/12/23 03:33:00;;;;;;;25.80;16.15;;;-0.20;99.90;;;;;;4988404;28;20049;-80
2021/12/23 03:35:27;;;;;;;29.35;16.52;;;-0.20;99.90;;;;;;4996882;28;244198;-80
2021/12/23 03:37:54;;;;;;;27.25;16.58;;;-0.30;99.90;;;;;;5014958;28;20049;-80
2021/12/23 03:40:24;;;;;;;29.52;17.50;;;-0.30;99.90;;;;;;4975418;28;198978;-79
2021/12/23 03:42:51;;;;;;;27.55;16.05;;;-0.20;99.90;;;;;;4988742;28;20058;-80
2021/12/23 03:45:17;;;;;;;27.73;17.08;;;-0.20;99.90;;;;;;4969490;28;96679;-81
2021/12/23 03:47:48;;;;;;;27.70;16.50;;;-0.20;99.90;;;;;;4980313;28;20043;-81
2021/12/23 03:50:22;;;;;;;28.17;17.00;;;-0.20;99.90;;;;;;4970724;28;20082;-80
2021/12/23 03:52:52;;;;;;;29.23;16.55;;;-0.20;99.90;;;;;;4962813;28;20046;-80
2021/12/23 03:55:19;;;;;;;28.13;16.17;;;-0.20;99.90;;;;;;4951059;28;138516;-80
2021/12/23 03:57:48;;;;;;;29.75;16.73;;;-0.20;99.90;;;;;;4991331;28;20054;-79
2021/12/23 04:00:18;;;;;;;28.42;17.15;;;-0.20;99.90;;;;;;4965302;28;200817;-80
2021/12/23 04:02:45;;;;;;;28.38;17.42;;;-0.10;99.90;;;;;;4989036;28;20054;-81
2021/12/23 04:05:15;;;;;;;30.73;17.52;;;-0.20;99.90;;;;;;4962547;28;136208;-80
2021/12/23 04:07:42;;;;;;;27.77;17.05;;;-0.10;99.90;;;;;;4987349;28;20058;-79
2021/12/23 04:10:13;;;;;;;24.38;15.43;;;-0.10;99.90;;;;;;4955430;28;20065;-80
2021/12/23 04:12:40;;;;;;;25.15;15.40;;;-0.10;99.90;;;;;;4964560;28;20511;-80
2021/12/23 04:15:07;;;;;;;28.42;16.35;;;-0.10;99.90;;;;;;4970523;28;208569;-79
2021/12/23 04:17:36;;;;;;;27.45;15.98;;;-0.10;99.90;;;;;;5012888;28;20562;-80
2021/12/23 04:20:19;;;;;;;29.08;16.80;;;0.00;99.90;;;;;;4992405;28;231189;-80
2021/12/23 04:22:47;;;;;;;27.33;16.88;;;0.00;99.90;;;;;;5013045;28;20050;-80
2021/12/23 04:25:17;;;;;;;27.80;16.45;;;0.00;99.90;;;;;;4978817;28;144468;-81
2021/12/23 04:27:46;;;;;;;26.30;15.93;;;0.00;99.90;;;;;;5007455;28;20049;-81
2021/12/23 04:30:15;;;;;;;26.70;15.57;;;0.10;99.90;;;;;;4998483;28;82526;-81
2021/12/23 04:32:45;;;;;;;31.73;16.98;;;0.10;99.90;;;;;;5014536;28;20414;-80
2021/12/23 04:35:13;;;;;;;29.83;16.65;;;0.10;99.90;;;;;;4992988;28;211847;-79
2021/12/23 04:37:39;;;;;;;28.08;16.55;;;0.10;99.90;;;;;;5016007;28;20057;-79
2021/12/23 04:40:08;;;;;;;25.15;15.95;;;0.10;99.90;;;;;;4997222;28;62085;-81
2021/12/23 04:42:35;;;;;;;29.58;16.92;;;0.10;99.90;;;;;;5007073;28;20079;-80
2021/12/23 04:45:06;;;;;;;29.92;17.17;;;0.10;99.90;;;;;;4979127;28;167264;-82
2021/12/23 04:47:33;;;;;;;28.33;16.17;;;0.20;99.90;;;;;;5008242;28;20042;-80
2021/12/23 04:49:59;;;;;;;27.10;16.55;;;0.10;99.90;;;;;;4992417;28;237969;-81
2021/12/23 04:52:29;;;;;;;28.92;16.17;;;0.20;99.90;;;;;;5017189;28;20510;-81
2021/12/23 04:54:55;;;;;;;30.17;16.48;;;0.20;99.90;;;;;;4993308;28;244915;-81
2021/12/23 04:57:22;;;;;;;29.52;16.67;;;0.20;99.90;;;;;;5016612;28;20073;-81
2021/12/23 04:59:48;;;;;;;28.02;15.80;;;0.20;99.90;;;;;;5000605;28;20049;-80
2021/12/23 05:02:21;;;;;;;29.67;17.60;;;0.20;99.90;;;;;;5002731;28;20545;-81
2021/12/23 05:04:50;;;;;;;29.50;16.92;;;0.20;99.90;;;;;;4976062;28;252758;-80
2021/12/23 05:07:18;;;;;;;30.52;17.05;;;0.20;99.90;;;;;;5019150;28;20087;-80
2021/12/23 05:09:44;;;;;;;28.33;16.67;;;0.20;99.90;;;;;;4983118;28;224945;-81
2021/12/23 05:12:11;;;;;;;27.25;16.38;;;0.20;99.90;;;;;;5018535;28;20053;-80
2021/12/23 05:14:38;;;;;;;26.17;15.73;;;0.20;99.90;;;;;;4979110;28;173845;-80
2021/12/23 05:17:06;;;;;;;27.23;16.60;;;0.20;99.90;;;;;;5021264;28;20049;-80
2021/12/23 05:19:33;;;;;;;28.00;17.10;;;0.20;99.90;;;;;;4995529;28;245717;-81
2021/12/23 05:21:59;;;;;;;28.35;16.38;;;0.10;99.90;;;;;;5023387;28;20038;-80
2021/12/23 05:24:25;;;;;;;29.02;16.45;;;0.20;99.90;;;;;;4992579;28;230247;-80
2021/12/23 05:26:51;;;;;;;28.58;16.50;;;0.20;99.90;;;;;;5005064;28;20061;-81
2021/12/23 05:29:18;;;;;;;28.10;17.23;;;0.20;99.90;;;;;;4993781;28;267370;-80
2021/12/23 05:31:44;;;;;;;29.20;16.63;;;0.20;99.90;;;;;;4985837;28;20061;-80
2021/12/23 05:34:10;;;;;;;27.97;17.10;;;0.20;99.90;;;;;;4990522;28;265138;-81
2021/12/23 05:36:41;;;;;;;27.33;16.33;;;0.20;99.90;;;;;;5015410;28;20148;-81
2021/12/23 05:39:08;;;;;;;31.67;17.77;;;0.20;99.90;;;;;;5002560;28;114060;-81
2021/12/23 05:41:35;;;;;;;26.83;16.33;;;0.20;99.90;;;;;;4970939;28;20058;-81
2021/12/23 05:44:02;;;;;;;30.10;16.83;;;0.20;99.90;;;;;;4958001;28;143968;-80
2021/12/23 05:46:29;;;;;;;28.20;16.95;;;0.20;99.90;;;;;;4943800;28;20054;-80
2021/12/23 05:48:55;;;;;;;27.30;16.00;;;0.20;99.90;;;;;;4970397;28;20059;-80
2021/12/23 05:51:21;;;;;;;31.08;17.73;;;0.20;99.90;;;;;;4934747;28;256704;-80
2021/12/23 05:53:48;;;;;;;28.23;17.05;;;0.20;99.90;;;;;;4949390;28;20054;-81
2021/12/23 05:56:17;;;;;;;28.90;17.15;;;0.20;99.90;;;;;;4955936;28;57393;-81
2021/12/23 05:58:43;;;;;;;30.70;17.23;;;0.20;99.90;;;;;;4948916;28;20063;-79
2021/12/23 06:01:09;;;;;;;29.85;17.25;;;0.20;99.90;;;;;;4933797;28;225495;-81
2021/12/23 06:03:35;;;;;;;29.40;16.80;;;0.20;99.90;;;;;;4950308;28;20054;-81
2021/12/23 06:06:27;;;;;;;31.70;17.73;;;0.20;99.90;;;;;;4937170;28;265247;-83
2021/12/23 06:09:01;;;;;;;29.73;17.65;;;0.20;99.90;;;;;;4952842;28;20522;-81
2021/12/23 06:11:36;;;;;;;29.55;17.10;;;0.20;99.90;;;;;;4585051;28;10003672;-81
2021/12/23 06:14:09;;;;;;;29.50;18.23;;;0.20;99.90;;;;;;4886958;28;8994364;-80
2021/12/23 06:16:35;;;;;;;30.58;17.58;;;0.20;99.90;;;;;;5012175;28;20324;-83
2021/12/23 06:19:04;;;;;;;29.88;17.13;;;0.20;99.90;;;;;;4995860;28;20073;-82
2021/12/23 06:21:32;;;;;;;30.50;17.63;;;0.20;99.90;;;;;;5015586;28;20053;-82
2021/12/23 06:23:59;;;;;;;28.10;17.83;;;0.20;99.90;;;;;;5001759;28;20057;-83
2021/12/23 06:26:25;;;;;;;28.27;17.80;;;0.30;99.90;;;;;;4977658;28;259622;-83
2021/12/23 06:28:54;;;;;;;29.70;17.98;;;0.30;99.90;;;;;;5011309;28;20057;-83
2021/12/23 06:31:21;;;;;;;30.42;17.50;;;0.20;99.90;;;;;;5002209;28;99782;-83
2021/12/23 06:33:47;;;;;;;29.52;18.52;;;0.30;99.90;;;;;;5025859;28;20113;-83
2021/12/23 06:36:17;;;;;;;30.08;18.98;;;0.30;99.90;;;;;;5006257;28;280598;-83
2021/12/23 06:38:45;;;;;;;28.38;18.70;;;0.30;99.90;;;;;;5044733;28;20497;-82
2021/12/23 06:41:12;;;;;;;32.13;18.05;;;0.30;99.90;;;;;;5013423;28;275014;-82
2021/12/23 06:43:41;;;;;;;30.52;16.88;;;0.30;99.90;;;;;;5016269;28;20058;-82
2021/12/23 06:46:08;;;;;;;32.97;18.42;;;0.30;99.90;;;;;;4996636;28;228803;-82
2021/12/23 06:48:37;;;;;;;30.35;18.40;;;0.20;99.90;;;;;;5008648;28;20050;-81
2021/12/23 06:51:07;;;;;;;31.92;17.65;;;0.30;99.90;;;;;;4997132;28;168687;-83
2021/12/23 06:53:33;;;;;;;30.95;17.98;;;0.30;99.90;;;;;;5008579;28;20068;-82
2021/12/23 06:56:02;;;;;;;30.40;17.60;;;0.30;99.90;;;;;;5008832;28;51382;-82
2021/12/23 06:58:40;;;;;;;31.52;17.77;;;0.30;99.90;;;;;;5028739;28;20038;-83
2021/12/23 07:01:11;;;;;;;32.95;19.05;;;0.30;99.90;;;;;;4982530;28;217175;-81
2021/12/23 07:04:02;;;;;;;28.85;18.08;;;0.40;99.90;;;;;;5011648;28;20129;-81
2021/12/23 07:06:26;;;;;;;31.60;18.83;;;0.40;99.90;;;;;;4967910;28;118082;-83
2021/12/23 07:08:55;;;;;;;30.02;17.95;;;0.30;99.90;;;;;;4989874;28;20054;-83
2021/12/23 07:11:25;;;;;;;28.70;17.38;;;0.30;99.90;;;;;;4979325;28;30087;-82
2021/12/23 07:14:15;;;;;;;31.33;18.65;;;0.30;99.90;;;;;;4991499;28;20041;-82
2021/12/23 07:16:42;;;;;;;28.30;17.92;;;0.30;99.90;;;;;;5009239;28;20054;-83
2021/12/23 07:19:11;;;;;;;28.92;17.77;;;0.30;99.90;;;;;;4979031;28;250448;-82
2021/12/23 07:21:55;;;;;;;33.97;19.15;;;0.40;99.90;;;;;;5030269;28;20053;-83
2021/12/23 07:24:22;;;;;;;;;;;0.30;99.90;;;;;;4974739;28;263295;-82
2021/12/23 07:26:51;;;;;;;32.80;19.15;;;0.30;99.90;;;;;;5000562;28;19918;-83
2021/12/23 07:29:17;;;;;;;30.60;17.87;;;0.30;99.90;;;;;;4973190;28;305027;-82
2021/12/23 07:31:44;;;;;;;31.05;19.48;;;0.30;99.90;;;;;;4981166;28;20058;-82
2021/12/23 07:34:12;;;;;;;34.17;18.70;;;0.20;99.90;;;;;;4986279;28;250702;-82
2021/12/23 07:36:41;;;;;;;32.53;19.20;;;0.30;99.90;;;;;;5011561;28;20045;-82
2021/12/23 07:39:09;;;;;;;34.83;20.50;;;0.30;99.90;;;;;;4994470;28;257836;-83
2021/12/23 07:41:40;;;;;;;29.98;18.38;;;0.30;99.90;;;;;;5028516;28;20056;-83
2021/12/23 07:44:19;;;;;;;31.20;19.83;;;0.40;99.90;;;;;;4986010;28;255008;-82
2021/12/23 07:46:48;;;;;;;36.47;20.90;;;0.30;99.90;;;;;;5017074;28;20053;-83
2021/12/23 07:49:17;;;;;;;31.38;19.30;;;0.30;99.90;;;;;;4990379;28;287801;-83
2021/12/23 07:51:44;;;;;;;33.10;18.02;;;0.30;99.90;;;;;;5027264;28;20069;-82
2021/12/23 07:54:13;;;;;;;34.22;20.08;;;0.30;99.90;;;;;;4981543;28;259298;-81
2021/12/23 07:56:39;;;;;;;33.00;19.40;;;0.30;99.90;;;;;;5015707;28;20046;-82
2021/12/23 07:59:09;;;;;;;33.16;19.62;;;0.30;99.90;;;;;;4898950;28;3010083;-82
2021/12/23 08:01:37;;;;;;;32.65;20.50;;;0.30;99.90;;;;;;5009117;28;20128;-83
2021/12/23 08:04:04;;;;;;;34.92;20.23;;;0.30;99.90;;;;;;4992160;28;223515;-83
2021/12/23 08:06:34;;;;;;;35.90;21.17;;;0.30;99.90;;;;;;5001627;28;91339;-81
2021/12/23 08:09:00;;;;;;;33.42;20.33;;;0.20;99.90;;;;;;5007162;28;20517;-81
2021/12/23 08:11:31;;;;;;;33.50;20.50;;;0.30;99.90;;;;;;4986986;28;20048;-81
2021/12/23 08:13:58;;;;;;;33.97;20.38;;;0.30;99.90;;;;;;4988846;28;20056;-80
2021/12/23 08:16:27;;;;;;;34.92;19.48;;;0.30;99.90;;;;;;4962695;28;20289;-80
2021/12/23 08:18:56;;;;;;;32.95;18.92;;;0.30;99.90;;;;;;5009159;28;20050;-82
2021/12/23 08:21:28;;;;;;;33.70;20.23;;;0.20;99.90;;;;;;4984635;28;89789;-81
2021/12/23 08:23:57;;;;;;;31.25;18.45;;;0.30;99.90;;;;;;5005940;28;20530;-83
2021/12/23 08:26:28;;;;;;;37.08;22.23;;;0.30;99.90;;;;;;5010128;28;186493;-81
2021/12/23 08:28:55;;;;;;;36.85;21.70;;;0.30;99.90;;;;;;5008636;28;20054;-82
2021/12/23 08:31:24;;;;;;;34.97;21.25;;;0.30;99.90;;;;;;5001844;28;240656;-82
2021/12/23 08:34:02;;;;;;;34.13;20.60;;;0.30;99.90;;;;;;4993393;28;20065;-81
2021/12/23 08:36:48;;;;;;;34.45;20.92;;;0.30;99.90;;;;;;4661961;28;10003305;-81
2021/12/23 08:42:06;;;;;;;35.47;20.85;;;0.30;99.90;;;;;;5008273;28;20050;-81
2021/12/23 08:44:36;;;;;;;33.97;21.00;;;0.30;99.90;;;;;;4976148;28;249582;-81
2021/12/23 08:47:13;;;;;;;37.65;22.00;;;0.30;99.90;;;;;;4972410;28;20483;-80
2021/12/23 08:49:45;;;;;;;36.65;21.92;;;0.30;99.90;;;;;;4960004;28;107743;-81
2021/12/23 08:52:12;;;;;;;37.85;22.30;;;0.30;99.90;;;;;;4957588;28;20060;-82
2021/12/23 08:54:56;;;;;;;38.58;22.42;;;0.30;99.90;;;;;;4950729;28;117544;-82
2021/12/23 08:57:37;;;;;;;36.08;22.25;;;0.30;99.90;;;;;;4946961;28;20058;-81
2021/12/23 09:00:09;;;;;;;37.22;21.13;;;0.40;99.90;;;;;;4964750;28;21798;-82
2021/12/23 09:02:48;;;;;;;36.53;22.20;;;0.30;99.90;;;;;;4969943;28;20063;-82
2021/12/23 09:05:27;;;;;;;40.38;22.98;;;0.30;99.90;;;;;;4842232;28;2996550;-82
2021/12/23 09:07:54;;;;;;;42.22;23.90;;;0.30;99.90;;;;;;4963475;28;20503;-81
2021/12/23 09:10:21;;;;;;;43.95;25.75;;;0.30;99.90;;;;;;4937585;28;111054;-81
2021/12/23 09:12:48;;;;;;;41.72;25.95;;;0.40;99.90;;;;;;4966835;28;20046;-80
2021/12/23 09:15:19;;;;;;;44.85;26.02;;;0.30;99.90;;;;;;4953990;28;92922;-80
2021/12/23 09:17:49;;;;;;;45.28;25.35;;;0.40;99.90;;;;;;4989932;28;20054;-81
2021/12/23 09:20:18;;;;;;;43.80;25.42;;;0.30;99.90;;;;;;4878923;28;3002268;-82
2021/12/23 09:22:50;;;;;;;48.20;26.98;;;0.30;99.90;;;;;;5013061;28;20042;-83
2021/12/23 09:25:30;;;;;;;48.88;28.25;;;0.40;99.90;;;;;;5001814;28;247628;-82
2021/12/23 09:33:51;;;;;;;51.05;29.65;;;0.40;99.90;;;;;;4968418;28;20058;-82
2021/12/23 09:36:18;;;;;;;52.90;29.15;;;0.40;99.90;;;;;;4952192;28;223223;-81
2021/12/23 09:38:49;;;;;;;53.88;29.25;;;0.40;99.90;;;;;;4962946;28;20055;-82
2021/12/23 09:41:21;;;;;;;54.00;27.88;;;0.30;99.90;;;;;;4915492;28;250214;-82
2021/12/23 09:43:57;;;;;;;47.50;25.52;;;0.40;99.90;;;;;;4948431;28;20046;-82
2021/12/23 09:46:24;;;;;;;57.65;29.38;;;0.40;99.90;;;;;;4940451;28;135263;-82
2021/12/23 09:48:53;;;;;;;53.55;30.08;;;0.40;99.90;;;;;;4964281;28;20059;-81
2021/12/23 09:51:21;;;;;;;56.80;29.90;;;0.30;99.90;;;;;;4942958;28;105829;-81
2021/12/23 09:53:57;;;;;;;56.00;29.38;;;0.40;99.90;;;;;;4941896;28;20058;-81
2021/12/23 09:56:28;;;;;;;60.08;31.95;;;0.40;99.90;;;;;;4957711;28;25310;-82
2021/12/23 09:58:57;;;;;;;56.55;29.08;;;0.40;99.90;;;;;;4952548;28;20062;-82
2021/12/23 10:01:25;;;;;;;60.63;32.55;;;0.40;99.90;;;;;;4950376;28;254429;-81
2021/12/23 10:03:55;;;;;;;62.85;29.65;;;0.50;99.90;;;;;;4972938;28;20169;-81
2021/12/23 10:06:24;;;;;;;55.42;28.20;;;0.40;99.90;;;;;;4943775;28;146995;-81
2021/12/23 10:08:59;;;;;;;65.60;33.80;;;0.40;99.90;;;;;;4998250;28;20069;-81
2021/12/23 10:11:56;;;;;;;68.32;33.85;;;0.50;99.90;;;;;;4994668;28;20038;-81
2021/12/23 10:37:23;;;;;;;68.70;33.63;;;0.60;99.90;;;;;;4947366;28;20045;-80
2021/12/23 10:39:53;;;;;;;66.15;32.90;;;0.60;99.90;;;;;;4939757;28;170495;-80
2021/12/23 10:42:25;;;;;;;71.82;34.72;;;0.60;99.90;;;;;;4958819;28;20043;-79
2021/12/23 10:44:54;;;;;;;67.43;33.20;;;0.70;99.90;;;;;;4932968;28;20077;-81
2021/12/23 10:47:54;;;;;;;66.90;32.40;;;0.70;99.90;;;;;;4967703;28;20055;-82
2021/12/23 10:53:39;;;;;;;68.43;33.72;;;0.70;99.90;;;;;;4954698;28;20070;-82
2021/12/23 10:59:18;;;;;;;78.35;34.20;;;0.70;99.90;;;;;;4945689;28;130822;-81
2021/12/23 11:02:05;;;;;;;68.07;33.38;;;0.70;99.90;;;;;;4973944;28;20046;-81
2021/12/23 11:04:50;;;;;;;73.80;33.75;;;0.70;99.90;;;;;;4971445;28;308144;-79
2021/12/23 11:07:24;;;;;;;69.88;33.97;;;0.70;99.90;;;;;;5029357;28;20065;-80
2021/12/23 11:38:08;;;;;;;77.90;36.67;;;0.70;99.90;;;;;;4960267;28;20040;-81
2021/12/23 11:45:45;;;;;;;82.60;36.10;;;0.70;99.90;;;;;;4947229;28;20055;-78
2021/12/23 11:48:13;;;;;;;78.57;36.22;;;0.60;99.90;;;;;;4973148;28;20047;-79
2021/12/23 11:53:52;;;;;;;80.47;36.17;;;0.60;99.90;;;;;;4996365;28;20062;-79
2021/12/23 11:56:25;;;;;;;82.88;37.97;;;0.70;99.90;;;;;;4958864;28;136358;-80
2021/12/23 11:58:55;;;;;;;79.60;33.88;;;0.70;99.90;;;;;;4996065;28;20055;-79
2021/12/23 12:01:30;;;;;;;89.97;38.60;;;0.70;99.90;;;;;;4968049;28;20044;-80
2021/12/23 12:04:35;;;;;;;77.65;34.92;;;0.70;99.90;;;;;;4907641;28;100846;-80
2021/12/23 12:07:23;;;;;;;81.05;36.40;;;0.70;99.90;;;;;;4924855;29;20052;-79
2021/12/23 12:10:00;;;;;;;85.53;38.28;;;0.70;99.90;;;;;;4908492;29;93572;-80
2021/12/23 12:12:30;;;;;;;76.55;34.30;;;0.70;99.90;;;;;;4910779;29;20064;-80
2021/12/23 12:14:57;;;;;;;83.25;37.50;;;0.70;99.90;;;;;;4900725;28;103097;-79
2021/12/23 12:17:26;;;;;;;79.65;35.88;;;0.80;99.90;;;;;;4899907;29;20055;-80
2021/12/23 12:19:55;;;;;;;84.45;37.10;;;0.80;99.90;;;;;;4891974;29;20067;-80
2021/12/23 12:22:49;;;;;;;86.78;37.60;;;0.80;99.90;;;;;;4913351;29;20059;-79
2021/12/23 12:25:25;;;;;;;84.13;37.75;;;0.80;99.90;;;;;;4906242;28;172885;-80
2021/12/23 12:28:33;;;;;;;83.13;36.53;;;0.80;99.90;;;;;;4914580;29;20422;-80
2021/12/23 12:31:09;;;;;;;98.57;38.60;;;0.80;99.90;;;;;;4912700;29;56821;-79
2021/12/23 12:33:44;;;;;;;89.65;37.70;;;0.90;99.90;;;;;;4922801;29;20059;-80
2021/12/23 12:36:16;;;;;;;96.32;39.72;;;0.90;99.90;;;;;;4916224;29;94147;-80
2021/12/23 12:38:46;;;;;;;78.50;34.53;;;1.00;99.90;;;;;;4945919;29;20060;-78
2021/12/23 12:41:23;;;;;;;86.72;38.63;;;0.90;99.90;;;;;;4932891;29;131727;-80
2021/12/23 12:44:16;;;;;;;77.68;34.97;;;0.90;99.90;;;;;;4922539;29;20273;-80
2021/12/23 12:47:08;;;;;;;84.78;37.90;;;0.90;99.90;;;;;;4926930;29;20721;-80
2021/12/23 12:49:40;;;;;;;85.55;37.53;;;1.00;99.90;;;;;;4822008;29;2996558;-79
2021/12/23 12:52:45;;;;;;;78.68;35.80;;;1.00;99.90;;;;;;4937132;29;20395;-79
2021/12/23 12:55:22;;;;;;;84.80;37.67;;;1.00;99.90;;;;;;4914058;29;205814;-78
2021/12/23 12:57:51;;;;;;;77.45;35.30;;;1.00;99.90;;;;;;4929729;29;20063;-78
2021/12/23 13:00:20;;;;;;;77.47;35.28;;;1.00;99.90;;;;;;4896371;29;238322;-78
2021/12/23 13:02:56;;;;;;;82.95;37.03;;;1.00;99.90;;;;;;4932521;29;20056;-77
2021/12/23 13:05:36;;;;;;;83.15;36.47;;;1.00;99.90;;;;;;4890245;29;238397;-77
2021/12/23 13:08:24;;;;;;;76.78;34.78;;;1.00;99.90;;;;;;4964069;28;20081;-77
2021/12/23 13:10:51;;;;;;;85.18;36.55;;;1.00;99.90;;;;;;5005655;28;20059;-79
2021/12/23 13:13:36;;;;;;;87.00;37.10;;;1.00;99.90;;;;;;5010946;28;20569;-79
2021/12/23 13:16:17;;;;;;;87.78;36.95;;;1.10;99.90;;;;;;4980771;28;22012;-78
2021/12/23 13:18:47;;;;;;;82.40;36.38;;;1.10;99.90;;;;;;5009844;28;20511;-80
2021/12/23 13:21:24;;;;;;;76.95;34.67;;;1.10;99.90;;;;;;4997691;28;145783;-81
2021/12/23 13:24:00;;;;;;;74.72;34.50;;;1.10;99.90;;;;;;4991552;28;20049;-80
2021/12/23 13:26:29;;;;;;;86.63;37.13;;;1.10;99.90;;;;;;4984205;28;20294;-82
2021/12/23 13:29:00;;;;;;;77.18;33.92;;;1.10;99.90;;;;;;5008519;28;20290;-79
2021/12/23 13:31:31;;;;;;;79.18;34.58;;;1.00;99.90;;;;;;4980511;28;20140;-78
2021/12/23 13:34:00;;;;;;;77.68;34.78;;;1.00;99.90;;;;;;5022502;28;20049;-80
2021/12/23 13:36:41;;;;;;;80.28;34.38;;;1.00;99.90;;;;;;4987760;28;20109;-80
2021/12/23 13:39:10;;;;;;;70.88;32.88;;;1.10;99.90;;;;;;4988210;28;295681;-80
2021/12/23 13:41:42;;;;;;;90.75;38.67;;;1.10;99.90;;;;;;5033405;28;20434;-80
2021/12/23 13:44:14;;;;;;;79.80;34.58;;;1.10;99.90;;;;;;4990558;28;271808;-80
2021/12/23 13:47:01;;;;;;;80.63;34.53;;;1.10;99.90;;;;;;5017166;28;20077;-80
2021/12/23 13:49:51;;;;;;;80.43;35.42;;;1.10;99.90;;;;;;5002682;28;23485;-81
2021/12/23 13:52:30;;;;;;;82.10;35.67;;;1.10;99.90;;;;;;5014799;28;20057;-80
2021/12/23 13:55:09;;;;;;;82.38;36.00;;;1.10;99.90;;;;;;5007200;28;267588;-80
2021/12/23 13:57:42;;;;;;;93.72;39.60;;;1.10;99.90;;;;;;5014032;28;20058;-80
2021/12/23 14:00:21;;;;;;;91.63;39.35;;;1.10;99.90;;;;;;5002583;28;254934;-80
2021/12/23 14:02:53;;;;;;;92.25;37.35;;;1.10;99.90;;;;;;5011528;28;20081;-80
2021/12/23 14:05:22;;;;;;;92.88;39.10;;;1.10;99.90;;;;;;4988732;28;223714;-80
2021/12/23 14:07:52;;;;;;;78.05;35.85;;;1.20;99.90;;;;;;5019753;28;20053;-80